createdAt,value
2022-12-11T00:00:47.230Z,4.65
2022-12-11T00:03:16.128Z,4.66
2022-12-11T00:05:43.683Z,4.64
2022-12-11T00:08:10.793Z,4.69
2022-12-11T00:10:38.201Z,4.62
2022-12-11T00:13:05.433Z,4.68
2022-12-11T00:15:32.354Z,4.58
2022-12-11T00:17:59.335Z,4.64
2022-12-11T00:20:26.211Z,4.76
2022-12-11T00:22:53.152Z,4.76
2022-12-11T00:25:20.068Z,4.71
2022-12-11T00:27:47.536Z,4.54
2022-12-11T00:30:14.839Z,4.75
2022-12-11T00:32:42.346Z,4.74
2022-12-11T00:35:10.342Z,4.50
2022-12-11T00:37:37.486Z,4.69
2022-12-11T00:40:04.897Z,4.59
2022-12-11T00:42:31.982Z,4.72
2022-12-11T00:44:58.921Z,4.46
2022-12-11T00:47:25.800Z,4.56
2022-12-11T00:49:52.867Z,4.65
2022-12-11T00:52:19.730Z,4.67
2022-12-11T00:54:46.653Z,4.52
2022-12-11T00:57:13.664Z,4.55
2022-12-11T00:59:40.821Z,4.50
2022-12-11T01:02:07.710Z,4.53
2022-12-11T01:04:36.340Z,4.61
2022-12-11T01:07:03.310Z,4.55
2022-12-11T01:09:48.678Z,4.51
2022-12-11T01:12:15.624Z,4.62
2022-12-11T01:14:42.498Z,4.53
2022-12-11T01:17:09.467Z,4.47
2022-12-11T01:19:37.412Z,4.41
2022-12-11T01:22:04.428Z,4.51
2022-12-11T01:24:31.341Z,4.44
2022-12-11T01:26:58.347Z,4.52
2022-12-11T01:29:25.269Z,4.59
2022-12-11T01:31:52.250Z,4.61
2022-12-11T01:34:19.204Z,4.41
2022-12-11T01:36:46.143Z,4.59
2022-12-11T01:39:13.087Z,4.44
2022-12-11T01:41:40.125Z,4.59
2022-12-11T01:44:07.956Z,4.58
2022-12-11T01:46:36.001Z,4.42
2022-12-11T01:49:04.842Z,4.37
2022-12-11T01:51:32.334Z,4.43
2022-12-11T01:54:04.820Z,4.42
2022-12-11T01:56:31.901Z,4.42
2022-12-11T01:59:00.479Z,4.39
2022-12-11T02:01:37.571Z,4.52
2022-12-11T02:04:04.694Z,4.25
2022-12-11T02:06:39.276Z,4.49
2022-12-11T02:09:08.085Z,4.37
2022-12-11T02:11:56.266Z,4.45
2022-12-11T02:14:37.719Z,4.46
2022-12-11T02:17:13.960Z,4.37
2022-12-11T02:19:56.152Z,4.44
2022-12-11T02:22:34.201Z,4.41
2022-12-11T02:25:03.935Z,4.33
2022-12-11T02:27:56.779Z,4.31
2022-12-11T02:30:23.917Z,4.33
2022-12-11T02:33:00.078Z,4.26
2022-12-11T02:35:34.042Z,4.38
2022-12-11T02:38:05.937Z,4.35
2022-12-11T02:40:33.441Z,4.34
2022-12-11T02:43:01.571Z,4.29
2022-12-11T02:45:28.513Z,4.27
2022-12-11T02:47:56.382Z,4.18
2022-12-11T02:50:23.917Z,4.34
2022-12-11T02:52:51.788Z,4.19
2022-12-11T02:55:18.814Z,4.28
2022-12-11T02:57:53.412Z,4.33
2022-12-11T03:00:20.676Z,4.13
2022-12-11T03:02:47.686Z,4.32
2022-12-11T03:05:14.815Z,4.31
2022-12-11T03:07:43.158Z,4.21
2022-12-11T03:10:12.292Z,4.30
2022-12-11T03:12:40.532Z,4.20
2022-12-11T03:15:10.791Z,4.12
2022-12-11T03:18:19.236Z,4.24
2022-12-11T03:20:48.365Z,4.11
2022-12-11T03:23:23.954Z,4.25
2022-12-11T03:25:58.693Z,4.18
2022-12-11T03:28:41.742Z,4.17
2022-12-11T03:31:11.615Z,4.14
2022-12-11T03:33:40.713Z,4.20
2022-12-11T03:36:10.087Z,4.11
2022-12-11T03:38:40.004Z,4.04
2022-12-11T03:41:07.202Z,4.10
2022-12-11T03:43:34.070Z,4.17
2022-12-11T03:46:01.309Z,4.13
2022-12-11T03:48:32.079Z,3.99
2022-12-11T03:50:59.066Z,4.08
2022-12-11T03:53:26.467Z,4.02
2022-12-11T03:55:53.543Z,4.09
2022-12-11T03:58:20.420Z,4.00
2022-12-11T04:00:47.322Z,3.98
2022-12-11T04:03:14.837Z,4.04
2022-12-11T04:05:43.039Z,4.01
2022-12-11T04:08:10.498Z,3.99
2022-12-11T04:10:37.491Z,3.97
2022-12-11T04:13:04.446Z,4.01
2022-12-11T04:15:31.434Z,4.09
2022-12-11T04:18:16.791Z,3.97
2022-12-11T04:21:02.285Z,3.98
2022-12-11T04:23:47.662Z,4.03
2022-12-11T04:26:18.477Z,3.89
2022-12-11T04:28:46.205Z,3.93
2022-12-11T04:31:14.215Z,3.88
2022-12-11T04:33:41.347Z,3.90
2022-12-11T04:36:08.825Z,3.85
2022-12-11T04:38:35.908Z,4.01
2022-12-11T04:41:08.092Z,4.00
2022-12-11T04:43:35.129Z,3.89
2022-12-11T04:46:18.232Z,3.94
2022-12-11T04:48:45.458Z,3.90
2022-12-11T04:51:12.470Z,3.87
2022-12-11T04:53:39.556Z,3.84
2022-12-11T04:56:07.596Z,3.98
2022-12-11T04:58:36.108Z,3.84
2022-12-11T05:01:10.104Z,3.94
2022-12-11T05:03:37.164Z,3.88
2022-12-11T05:06:04.290Z,3.81
2022-12-11T05:08:31.318Z,3.84
2022-12-11T05:10:59.196Z,3.81
2022-12-11T05:13:26.903Z,3.82
2022-12-11T05:15:53.921Z,3.90
2022-12-11T05:18:20.918Z,3.90
2022-12-11T05:21:01.394Z,3.85
2022-12-11T05:23:28.528Z,3.84
2022-12-11T05:26:00.108Z,3.84
2022-12-11T05:28:28.244Z,3.81
2022-12-11T05:30:58.726Z,3.88
2022-12-11T05:33:25.850Z,3.80
2022-12-11T05:35:52.768Z,3.74
2022-12-11T05:38:19.823Z,3.76
2022-12-11T05:41:02.141Z,3.82
2022-12-11T05:43:30.036Z,3.71
2022-12-11T05:45:57.343Z,3.67
2022-12-11T05:48:24.473Z,3.75
2022-12-11T05:50:58.664Z,3.77
2022-12-11T05:53:25.791Z,3.77
2022-12-11T05:55:52.704Z,3.70
2022-12-11T05:58:20.104Z,3.64
2022-12-11T06:00:47.733Z,3.82
2022-12-11T06:03:14.658Z,3.63
2022-12-11T06:05:41.986Z,3.69
2022-12-11T06:08:09.028Z,3.72
2022-12-11T06:10:36.035Z,3.71
2022-12-11T06:13:03.031Z,3.79
2022-12-11T06:15:30.012Z,3.77
2022-12-11T06:17:56.989Z,3.69
2022-12-11T06:20:23.938Z,3.79
2022-12-11T06:22:50.965Z,3.55
2022-12-11T06:25:18.018Z,3.66
2022-12-11T06:27:44.986Z,3.72
2022-12-11T06:30:12.337Z,3.60
2022-12-11T06:32:39.324Z,3.73
2022-12-11T06:35:06.631Z,3.64
2022-12-11T06:37:35.314Z,3.73
2022-12-11T06:40:02.609Z,3.55
2022-12-11T06:42:30.498Z,3.70
2022-12-11T06:44:59.837Z,3.63
2022-12-11T06:47:27.534Z,3.56
2022-12-11T06:49:55.091Z,3.70
2022-12-11T06:52:22.795Z,3.54
2022-12-11T06:54:49.826Z,3.72
2022-12-11T06:57:17.570Z,3.68
2022-12-11T06:59:44.605Z,3.70
2022-12-11T07:02:15.220Z,3.65
2022-12-11T07:04:42.340Z,3.54
2022-12-11T07:07:09.588Z,3.63
2022-12-11T07:09:37.606Z,3.53
2022-12-11T07:12:04.952Z,3.52
2022-12-11T07:14:31.944Z,3.42
2022-12-11T07:16:59.002Z,3.67
2022-12-11T07:19:26.079Z,3.51
2022-12-11T07:21:53.238Z,3.61
2022-12-11T07:24:20.150Z,3.51
2022-12-11T07:26:47.329Z,3.57
2022-12-11T07:29:14.261Z,3.57
2022-12-11T07:31:41.236Z,3.61
2022-12-11T07:34:08.249Z,3.53
2022-12-11T07:36:35.377Z,3.53
2022-12-11T07:39:02.320Z,3.54
2022-12-11T07:41:29.428Z,3.39
2022-12-11T07:43:56.405Z,3.52
2022-12-11T07:46:24.577Z,3.49
2022-12-11T07:48:51.629Z,3.59
2022-12-11T07:51:19.499Z,3.49
2022-12-11T07:53:48.030Z,3.45
2022-12-11T07:56:15.891Z,3.64
2022-12-11T07:58:42.977Z,3.64
2022-12-11T08:01:13.926Z,3.62
2022-12-11T08:03:40.937Z,3.53
2022-12-11T08:06:08.173Z,3.46
2022-12-11T08:08:35.230Z,3.65
2022-12-11T08:11:12.229Z,3.50
2022-12-11T08:13:39.271Z,3.66
2022-12-11T08:16:07.407Z,3.58
2022-12-11T08:18:34.956Z,3.49
2022-12-11T08:21:12.766Z,3.57
2022-12-11T08:23:39.769Z,3.48
2022-12-11T08:26:08.090Z,3.68
2022-12-11T08:28:35.038Z,3.54
2022-12-11T08:31:04.767Z,3.63
2022-12-11T08:33:32.011Z,3.49
2022-12-11T08:35:58.962Z,3.53
2022-12-11T08:38:26.017Z,3.55
2022-12-11T08:40:53.056Z,3.52
2022-12-11T08:43:19.988Z,3.48
2022-12-11T08:45:47.038Z,3.69
2022-12-11T08:48:14.804Z,3.45
2022-12-11T08:50:42.009Z,3.71
2022-12-11T08:53:08.995Z,3.52
2022-12-11T08:55:35.886Z,3.70
2022-12-11T08:58:03.394Z,3.48
2022-12-11T09:00:30.376Z,3.69
2022-12-11T09:02:57.388Z,3.57
2022-12-11T09:05:24.408Z,3.53
2022-12-11T09:07:51.377Z,3.54
2022-12-11T09:10:18.580Z,3.57
2022-12-11T09:12:45.564Z,3.55
2022-12-11T09:15:12.916Z,3.55
2022-12-11T09:17:40.206Z,3.59
2022-12-11T09:20:07.708Z,3.53
2022-12-11T09:22:34.729Z,3.43
2022-12-11T09:25:01.746Z,3.50
2022-12-11T09:27:29.449Z,3.65
2022-12-11T09:29:56.445Z,3.71
2022-12-11T09:32:23.401Z,3.60
2022-12-11T09:34:51.529Z,3.55
2022-12-11T09:37:18.498Z,3.62
2022-12-11T09:39:45.440Z,3.49
2022-12-11T09:42:39.483Z,3.48
2022-12-11T09:45:10.961Z,3.55
2022-12-11T09:47:43.380Z,3.71
2022-12-11T09:50:10.386Z,3.71
2022-12-11T09:52:46.389Z,3.66
2022-12-11T09:55:16.019Z,3.55
2022-12-11T09:57:43.063Z,3.71
2022-12-11T10:00:14.756Z,3.68
2022-12-11T10:03:07.347Z,3.55
2022-12-11T10:06:08.178Z,3.67
2022-12-11T10:08:56.686Z,3.68
2022-12-11T10:11:45.501Z,3.67
2022-12-11T10:14:27.585Z,3.69
2022-12-11T10:17:00.119Z,3.49
2022-12-11T10:19:29.007Z,3.71
2022-12-11T10:21:55.952Z,3.54
2022-12-11T10:24:59.386Z,3.61
2022-12-11T10:27:21.515Z,3.53
2022-12-11T10:29:49.659Z,3.70
2022-12-11T10:32:25.256Z,3.59
2022-12-11T10:35:02.372Z,3.59
2022-12-11T10:37:29.375Z,3.59
2022-12-11T10:39:56.310Z,3.63
2022-12-11T10:42:23.421Z,3.53
2022-12-11T10:44:57.656Z,3.71
2022-12-11T10:47:24.726Z,3.49
2022-12-11T10:49:59.743Z,3.63
2022-12-11T10:52:33.787Z,3.75
2022-12-11T10:55:20.982Z,3.66
2022-12-11T10:58:02.462Z,3.64
2022-12-11T11:00:30.909Z,3.67
2022-12-11T11:02:58.103Z,3.54
2022-12-11T11:05:35.955Z,3.62
2022-12-11T11:08:19.829Z,3.56
2022-12-11T11:10:54.868Z,3.47
2022-12-11T11:13:23.552Z,3.57
2022-12-11T11:15:58.586Z,3.69
2022-12-11T11:18:27.180Z,3.66
2022-12-11T11:20:54.126Z,3.64
2022-12-11T11:23:21.878Z,3.60
2022-12-11T11:25:59.657Z,3.75
2022-12-11T11:28:38.058Z,3.73
2022-12-11T11:31:09.560Z,3.55
2022-12-11T11:33:37.201Z,3.75
2022-12-11T11:36:06.043Z,3.57
2022-12-11T11:38:36.009Z,3.76
2022-12-11T11:41:11.501Z,3.75
2022-12-11T11:43:46.580Z,3.70
2022-12-11T11:46:29.231Z,3.65
2022-12-11T11:49:19.525Z,3.59
2022-12-11T11:51:54.616Z,3.53
2022-12-11T11:54:28.395Z,3.50
2022-12-11T11:57:03.638Z,3.49
2022-12-11T11:59:43.233Z,3.71
2022-12-11T12:02:19.375Z,3.57
2022-12-11T12:04:46.798Z,3.46
2022-12-11T12:07:36.735Z,3.65
2022-12-11T12:10:26.718Z,3.63
2022-12-11T12:13:47.697Z,3.62
2022-12-11T12:16:22.939Z,3.42
2022-12-11T12:19:02.073Z,3.60
2022-12-11T12:21:36.496Z,3.51
2022-12-11T12:24:03.401Z,3.58
2022-12-11T12:26:32.653Z,3.47
2022-12-11T12:29:18.163Z,3.59
2022-12-11T12:31:54.127Z,3.59
2022-12-11T12:34:39.039Z,3.59
2022-12-11T12:37:27.490Z,3.59
2022-12-11T12:40:13.470Z,3.56
2022-12-11T12:42:46.687Z,3.60
2022-12-11T12:45:28.267Z,3.41
2022-12-11T12:47:55.268Z,3.47
2022-12-11T12:50:24.168Z,3.53
2022-12-11T12:52:51.601Z,3.40
2022-12-11T12:55:23.718Z,3.53
2022-12-11T12:57:54.946Z,3.63
2022-12-11T13:00:34.690Z,3.49
2022-12-11T13:03:03.763Z,3.63
2022-12-11T13:05:33.366Z,3.63
2022-12-11T13:08:02.421Z,3.40
2022-12-11T13:10:36.422Z,3.62
2022-12-11T13:13:04.300Z,3.54
2022-12-11T13:15:43.830Z,3.54
2022-12-11T13:18:37.013Z,3.53
2022-12-11T13:21:24.817Z,3.41
2022-12-11T13:23:51.833Z,3.49
2022-12-11T13:26:32.332Z,3.55
2022-12-11T13:28:59.465Z,3.43
2022-12-11T13:31:34.791Z,3.54
2022-12-11T13:34:19.083Z,3.53
2022-12-11T13:36:50.221Z,3.49
2022-12-11T13:39:24.104Z,3.46
2022-12-11T13:41:54.004Z,3.44
2022-12-11T13:44:27.198Z,3.48
2022-12-11T13:46:55.730Z,3.51
2022-12-11T13:49:24.994Z,3.34
2022-12-11T13:51:54.256Z,3.38
2022-12-11T13:54:21.173Z,3.48
2022-12-11T13:57:02.914Z,3.29
2022-12-11T13:59:34.945Z,3.46
2022-12-11T14:02:06.339Z,3.47
2022-12-11T14:04:33.980Z,3.45
2022-12-11T14:07:00.864Z,3.29
2022-12-11T14:09:27.883Z,3.38
2022-12-11T14:11:57.476Z,3.37
2022-12-11T14:14:44.671Z,3.37
2022-12-11T14:17:14.181Z,3.38
2022-12-11T14:19:45.842Z,3.37
2022-12-11T14:22:27.174Z,3.28
2022-12-11T14:24:57.730Z,3.31
2022-12-11T14:27:25.002Z,3.31
2022-12-11T14:29:52.055Z,3.24
2022-12-11T14:32:31.194Z,3.30
2022-12-11T14:34:58.129Z,3.17
2022-12-11T14:37:25.272Z,3.22
2022-12-11T14:40:07.274Z,3.14
2022-12-11T14:42:42.797Z,3.20
2022-12-11T14:45:21.289Z,3.19
2022-12-11T14:47:48.726Z,3.21
2022-12-11T14:50:18.535Z,3.23
2022-12-11T14:52:51.689Z,3.10
2022-12-11T14:55:22.097Z,3.10
2022-12-11T14:57:50.260Z,3.04
2022-12-11T15:00:30.593Z,3.17
2022-12-11T15:03:05.431Z,2.96
2022-12-11T15:05:38.800Z,3.00
2022-12-11T15:08:10.845Z,3.15
2022-12-11T15:11:02.248Z,2.92
2022-12-11T15:13:29.223Z,2.95
2022-12-11T15:15:56.943Z,2.92
2022-12-11T15:18:31.680Z,2.98
2022-12-11T15:21:00.840Z,2.93
2022-12-11T15:23:28.644Z,3.10
2022-12-11T15:25:59.781Z,2.90
2022-12-11T15:28:30.641Z,3.02
2022-12-11T15:31:00.061Z,2.85
2022-12-11T15:33:32.542Z,3.05
2022-12-11T15:36:06.022Z,3.04
2022-12-11T15:38:39.620Z,3.02
2022-12-11T15:41:07.157Z,2.80
2022-12-11T15:43:36.177Z,2.86
2022-12-11T15:46:03.976Z,2.91
2022-12-11T15:48:31.001Z,2.91
2022-12-11T15:50:57.978Z,2.99
2022-12-11T15:53:24.970Z,2.97
2022-12-11T15:55:51.953Z,2.79
2022-12-11T15:58:23.308Z,2.97
2022-12-11T16:00:50.650Z,2.87
2022-12-11T16:03:19.145Z,2.75
2022-12-11T16:05:46.138Z,2.75
2022-12-11T16:08:15.243Z,2.94
2022-12-11T16:10:45.536Z,2.88
2022-12-11T16:13:13.009Z,2.91
2022-12-11T16:15:41.939Z,2.76
2022-12-11T16:18:11.006Z,2.91
2022-12-11T16:20:38.237Z,2.76
2022-12-11T16:23:05.275Z,2.80
2022-12-11T16:25:32.970Z,2.70
2022-12-11T16:28:00.601Z,2.74
2022-12-11T16:30:28.300Z,2.80
2022-12-11T16:32:55.263Z,2.87
2022-12-11T16:35:22.431Z,2.71
2022-12-11T16:37:50.784Z,2.87
2022-12-11T16:40:17.826Z,2.64
2022-12-11T16:42:44.762Z,2.71
2022-12-11T16:45:14.381Z,2.65
2022-12-11T16:47:41.565Z,2.61
2022-12-11T16:50:09.179Z,2.79
2022-12-11T16:52:36.170Z,2.81
2022-12-11T16:55:03.211Z,2.67
2022-12-11T16:57:30.480Z,2.74
2022-12-11T16:59:57.373Z,2.52
2022-12-11T17:02:24.429Z,2.80
2022-12-11T17:04:54.033Z,2.55
2022-12-11T17:07:21.243Z,2.78
2022-12-11T17:09:48.187Z,2.55
2022-12-11T17:12:15.111Z,2.62
2022-12-11T17:14:42.083Z,2.75
2022-12-11T17:17:09.415Z,2.77
2022-12-11T17:19:37.000Z,2.74
2022-12-11T17:22:04.714Z,2.73
2022-12-11T17:24:31.632Z,2.69
2022-12-11T17:26:59.805Z,2.75
2022-12-11T17:29:26.737Z,2.62
2022-12-11T17:31:53.684Z,2.60
2022-12-11T17:34:20.556Z,2.74
2022-12-11T17:36:47.684Z,2.72
2022-12-11T17:39:14.617Z,2.52
2022-12-11T17:41:41.578Z,2.60
2022-12-11T17:44:08.478Z,2.66
2022-12-11T17:46:35.496Z,2.70
2022-12-11T17:49:03.990Z,2.67
2022-12-11T17:51:30.904Z,2.63
2022-12-11T17:53:57.901Z,2.59
2022-12-11T17:56:25.049Z,2.54
2022-12-11T17:58:52.079Z,2.58
2022-12-11T18:01:19.373Z,2.63
2022-12-11T18:03:47.143Z,2.61
2022-12-11T18:06:14.771Z,2.68
2022-12-11T18:08:41.946Z,2.66
2022-12-11T18:11:16.725Z,2.47
2022-12-11T18:13:44.147Z,2.49
2022-12-11T18:16:17.477Z,2.50
2022-12-11T18:18:45.958Z,2.60
2022-12-11T18:21:14.177Z,2.55
2022-12-11T18:23:41.088Z,2.64
2022-12-11T18:26:08.070Z,2.50
2022-12-11T18:28:35.047Z,2.46
2022-12-11T18:31:02.580Z,2.54
2022-12-11T18:33:30.105Z,2.52
2022-12-11T18:35:57.221Z,2.50
2022-12-11T18:38:24.387Z,2.45
2022-12-11T18:40:51.775Z,2.31
2022-12-11T18:43:18.676Z,2.49
2022-12-11T18:45:45.745Z,2.43
2022-12-11T18:48:13.378Z,2.48
2022-12-11T18:50:52.338Z,2.52
2022-12-11T18:53:19.732Z,2.60
2022-12-11T18:55:47.617Z,2.46
2022-12-11T18:58:16.297Z,2.62
2022-12-11T19:00:43.343Z,2.58
2022-12-11T19:03:10.663Z,2.57
2022-12-11T19:05:40.460Z,2.44
2022-12-11T19:08:07.535Z,2.51
2022-12-11T19:10:34.504Z,2.48
2022-12-11T19:13:01.392Z,2.55
2022-12-11T19:15:28.418Z,2.57
2022-12-11T19:17:55.354Z,2.54
2022-12-11T19:20:48.061Z,2.57
2022-12-11T19:23:09.261Z,2.48
2022-12-11T19:25:42.353Z,2.55
2022-12-11T19:28:09.390Z,2.43
2022-12-11T19:30:36.981Z,2.51
2022-12-11T19:33:03.910Z,2.43
2022-12-11T19:35:30.858Z,2.43
2022-12-11T19:37:57.779Z,2.46
2022-12-11T19:40:26.421Z,2.44
2022-12-11T19:42:53.497Z,2.21
2022-12-11T19:45:20.413Z,2.27
2022-12-11T19:47:47.295Z,2.28
2022-12-11T19:50:14.276Z,2.42
2022-12-11T19:52:45.958Z,2.24
2022-12-11T19:55:15.221Z,2.15
2022-12-11T19:57:42.191Z,2.22
2022-12-11T20:00:09.586Z,2.35
2022-12-11T20:02:39.148Z,2.10
2022-12-11T20:05:06.401Z,2.21
2022-12-11T20:07:33.348Z,2.32
2022-12-11T20:10:00.595Z,2.29
2022-12-11T20:12:28.642Z,2.25
2022-12-11T20:14:55.613Z,2.14
2022-12-11T20:17:22.532Z,2.08
2022-12-11T20:19:49.893Z,2.11
2022-12-11T20:22:16.892Z,2.14
2022-12-11T20:24:43.833Z,2.15
2022-12-11T20:27:12.553Z,2.22
2022-12-11T20:29:39.562Z,1.97
2022-12-11T20:32:07.529Z,2.02
2022-12-11T20:34:34.549Z,2.16
2022-12-11T20:37:01.605Z,2.00
2022-12-11T20:39:29.221Z,1.99
2022-12-11T20:41:56.188Z,2.06
2022-12-11T20:44:23.180Z,2.15
2022-12-11T20:46:51.025Z,1.96
2022-12-11T20:49:18.071Z,2.18
2022-12-11T20:51:44.975Z,2.03
2022-12-11T20:54:12.285Z,2.11
2022-12-11T20:56:39.327Z,1.99
2022-12-11T20:59:06.953Z,2.06
2022-12-11T21:01:35.039Z,2.17
2022-12-11T21:04:02.033Z,2.10
2022-12-11T21:06:38.841Z,2.02
2022-12-11T21:09:08.061Z,2.05
2022-12-11T21:11:35.030Z,2.14
2022-12-11T21:14:01.898Z,1.93
2022-12-11T21:16:29.086Z,1.95
2022-12-11T21:18:56.755Z,2.10
2022-12-11T21:21:23.777Z,1.95
2022-12-11T21:23:50.843Z,2.09
2022-12-11T21:26:17.858Z,2.09
2022-12-11T21:28:44.796Z,1.97
2022-12-11T21:31:13.607Z,2.10
2022-12-11T21:33:40.613Z,2.10
2022-12-11T21:36:11.097Z,2.08
2022-12-11T21:38:38.207Z,1.95
2022-12-11T21:41:13.828Z,2.07
2022-12-11T21:44:00.422Z,2.04
2022-12-11T21:46:29.009Z,2.11
2022-12-11T21:48:56.146Z,1.90
2022-12-11T21:51:34.135Z,2.03
2022-12-11T21:54:03.505Z,1.96
2022-12-11T21:56:31.817Z,2.09
2022-12-11T21:58:58.832Z,1.95
2022-12-11T22:01:31.489Z,2.06
2022-12-11T22:03:58.831Z,1.91
2022-12-11T22:06:25.706Z,1.93
2022-12-11T22:08:52.735Z,1.90
2022-12-11T22:11:20.827Z,2.10
2022-12-11T22:13:47.851Z,1.94
2022-12-11T22:16:15.003Z,1.99
2022-12-11T22:18:42.014Z,2.08
2022-12-11T22:21:09.002Z,2.08
2022-12-11T22:23:37.814Z,1.95
2022-12-11T22:26:05.204Z,2.01
2022-12-11T22:28:32.139Z,1.86
2022-12-11T22:30:59.128Z,1.93
2022-12-11T22:33:26.921Z,1.95
2022-12-11T22:35:59.816Z,1.84
2022-12-11T22:38:26.910Z,1.93
2022-12-11T22:40:54.341Z,1.84
2022-12-11T22:43:21.805Z,1.89
2022-12-11T22:45:49.440Z,1.78
2022-12-11T22:48:16.456Z,2.00
2022-12-11T22:50:44.322Z,1.87
2022-12-11T22:53:11.830Z,1.80
2022-12-11T22:55:39.889Z,2.01
2022-12-11T22:58:07.120Z,1.73
2022-12-11T23:00:34.125Z,1.99
2022-12-11T23:03:02.107Z,1.98
2022-12-11T23:05:29.491Z,1.82
2022-12-11T23:07:56.558Z,1.88
2022-12-11T23:10:23.588Z,1.73
2022-12-11T23:12:50.510Z,1.90
2022-12-11T23:15:18.329Z,1.75
2022-12-11T23:17:45.207Z,1.87
2022-12-11T23:20:12.209Z,1.71
2022-12-11T23:22:39.107Z,1.84
2022-12-11T23:25:06.429Z,1.83
2022-12-11T23:27:33.318Z,1.58
2022-12-11T23:30:00.287Z,1.65
2022-12-11T23:32:27.673Z,1.60
2022-12-11T23:34:54.599Z,1.74
2022-12-11T23:37:21.539Z,1.65
2022-12-11T23:39:48.453Z,1.61
2022-12-11T23:42:15.393Z,1.72
2022-12-11T23:44:42.294Z,1.76
2022-12-11T23:47:09.219Z,1.60
2022-12-11T23:49:36.136Z,1.64
2022-12-11T23:52:03.281Z,1.53
2022-12-11T23:54:30.890Z,1.63
2022-12-11T23:56:57.853Z,1.56
2022-12-11T23:59:24.805Z,1.63
